createdAt,value
2023-04-23T00:02:09.494Z,15.30
2023-04-23T00:04:38.817Z,15.20
2023-04-23T00:07:06.950Z,15.20
2023-04-23T00:09:36.102Z,15.20
2023-04-23T00:12:04.299Z,15.20
2023-04-23T00:14:31.890Z,15.10
2023-04-23T00:16:59.163Z,15.10
2023-04-23T00:19:27.503Z,15.20
2023-04-23T00:21:54.815Z,15.10
2023-04-23T00:24:22.080Z,15.10
2023-04-23T00:26:49.311Z,15.10
2023-04-23T00:29:16.625Z,15.10
2023-04-23T00:31:44.415Z,15.00
2023-04-23T00:34:11.961Z,15.10
2023-04-23T00:36:39.403Z,15.10
2023-04-23T00:39:08.155Z,15.20
2023-04-23T00:41:35.638Z,15.20
2023-04-23T00:44:03.441Z,15.20
2023-04-23T00:46:30.889Z,15.20
2023-04-23T00:49:00.807Z,15.20
2023-04-23T00:51:29.444Z,15.10
2023-04-23T00:53:56.984Z,15.10
2023-04-23T00:56:26.512Z,15.20
2023-04-23T00:58:54.373Z,15.20
2023-04-23T01:01:22.357Z,15.10
2023-04-23T01:03:51.419Z,15.20
2023-04-23T01:06:19.489Z,15.20
2023-04-23T01:08:47.755Z,15.10
2023-04-23T01:11:16.936Z,15.10
2023-04-23T01:13:44.232Z,15.00
2023-04-23T01:16:11.820Z,15.00
2023-04-23T01:18:41.060Z,15.00
2023-04-23T01:21:12.020Z,15.00
2023-04-23T01:23:39.846Z,15.00
2023-04-23T01:26:07.599Z,15.00
2023-04-23T01:28:35.426Z,15.00
2023-04-23T01:31:04.261Z,14.90
2023-04-23T01:33:32.629Z,14.80
2023-04-23T01:36:00.800Z,14.80
2023-04-23T01:38:30.963Z,14.80
2023-04-23T01:40:58.374Z,14.70
2023-04-23T01:43:25.983Z,14.70
2023-04-23T01:45:53.334Z,14.70
2023-04-23T01:48:22.125Z,14.70
2023-04-23T01:50:51.353Z,14.70
2023-04-23T01:53:18.779Z,14.60
2023-04-23T01:55:50.917Z,14.60
2023-04-23T01:58:19.517Z,14.60
2023-04-23T02:00:46.735Z,14.60
2023-04-23T02:03:14.932Z,14.60
2023-04-23T02:05:43.825Z,14.70
2023-04-23T02:08:12.782Z,14.70
2023-04-23T02:10:40.483Z,14.70
2023-04-23T02:13:08.012Z,14.70
2023-04-23T02:15:35.622Z,14.70
2023-04-23T02:18:02.949Z,14.60
2023-04-23T02:20:30.479Z,14.60
2023-04-23T02:22:57.808Z,14.60
2023-04-23T02:25:25.256Z,14.60
2023-04-23T02:27:53.334Z,14.60
2023-04-23T02:30:23.542Z,14.50
2023-04-23T02:32:51.667Z,14.50
2023-04-23T02:35:21.277Z,14.40
2023-04-23T02:37:48.729Z,14.40
2023-04-23T02:40:16.396Z,14.40
2023-04-23T02:42:44.644Z,14.40
2023-04-23T02:45:12.297Z,14.40
2023-04-23T02:47:39.593Z,14.30
2023-04-23T02:50:07.848Z,14.30
2023-04-23T02:52:35.226Z,14.30
2023-04-23T02:55:03.301Z,14.30
2023-04-23T02:57:31.205Z,14.30
2023-04-23T02:59:58.446Z,14.20
2023-04-23T03:02:33.836Z,14.20
2023-04-23T03:05:01.276Z,14.20
2023-04-23T03:07:28.555Z,14.20
2023-04-23T03:09:55.975Z,14.20
2023-04-23T03:12:24.212Z,14.30
2023-04-23T03:14:51.998Z,14.20
2023-04-23T03:17:19.759Z,14.20
2023-04-23T03:19:48.044Z,14.20
2023-04-23T03:22:15.668Z,14.20
2023-04-23T03:24:43.336Z,14.10
2023-04-23T03:27:11.230Z,14.10
2023-04-23T03:29:38.410Z,14.00
2023-04-23T03:32:07.315Z,14.00
2023-04-23T03:34:34.577Z,13.90
2023-04-23T03:37:02.610Z,13.90
2023-04-23T03:39:32.535Z,13.90
2023-04-23T03:42:02.102Z,13.90
2023-04-23T03:44:31.586Z,13.90
2023-04-23T03:46:59.699Z,13.80
2023-04-23T03:49:27.713Z,13.70
2023-04-23T03:51:56.282Z,13.70
2023-04-23T03:54:25.892Z,13.70
2023-04-23T03:57:05.049Z,13.70
2023-04-23T03:59:39.089Z,13.60
2023-04-23T04:02:06.658Z,13.60
2023-04-23T04:04:34.563Z,13.50
2023-04-23T04:07:01.985Z,13.50
2023-04-23T04:09:29.907Z,13.50
2023-04-23T04:12:01.910Z,13.50
2023-04-23T04:14:29.196Z,13.40
2023-04-23T04:16:57.047Z,13.40
2023-04-23T04:19:24.392Z,13.40
2023-04-23T04:21:52.729Z,13.40
2023-04-23T04:24:23.667Z,13.40
2023-04-23T04:26:52.994Z,13.30
2023-04-23T04:29:21.508Z,13.30
2023-04-23T04:31:49.017Z,13.30
2023-04-23T04:34:18.074Z,13.30
2023-04-23T04:36:47.621Z,13.30
2023-04-23T04:39:15.054Z,13.20
2023-04-23T04:41:42.932Z,13.20
2023-04-23T04:44:10.306Z,13.10
2023-04-23T04:46:40.707Z,13.10
2023-04-23T04:49:13.751Z,13.10
2023-04-23T04:51:41.367Z,13.00
2023-04-23T04:54:08.775Z,13.00
2023-04-23T04:56:36.065Z,13.00
2023-04-23T04:59:04.245Z,12.90
2023-04-23T05:01:32.634Z,13.00
2023-04-23T05:04:00.407Z,13.00
2023-04-23T05:06:29.959Z,13.00
2023-04-23T05:08:57.863Z,13.10
2023-04-23T05:11:25.331Z,13.10
2023-04-23T05:13:52.786Z,13.00
2023-04-23T05:16:20.065Z,13.10
2023-04-23T05:18:47.331Z,13.10
2023-04-23T05:21:16.026Z,13.10
2023-04-23T05:23:43.242Z,13.10
2023-04-23T05:26:13.817Z,13.00
2023-04-23T05:28:41.495Z,13.10
2023-04-23T05:31:08.773Z,13.10
2023-04-23T05:33:46.398Z,13.10
2023-04-23T05:36:16.753Z,13.00
2023-04-23T05:38:43.990Z,13.00
2023-04-23T05:41:11.552Z,13.00
2023-04-23T05:43:39.464Z,13.00
2023-04-23T05:46:07.892Z,12.90
2023-04-23T05:48:36.973Z,12.90
2023-04-23T05:51:04.445Z,12.90
2023-04-23T05:53:33.166Z,13.00
2023-04-23T05:56:00.840Z,13.00
2023-04-23T05:58:28.607Z,13.10
2023-04-23T06:00:57.939Z,13.10
2023-04-23T06:03:25.766Z,13.10
2023-04-23T06:05:53.832Z,13.10
2023-04-23T06:08:24.530Z,13.10
2023-04-23T06:10:53.748Z,13.10
2023-04-23T06:13:22.112Z,13.00
2023-04-23T06:15:49.386Z,13.00
2023-04-23T06:18:16.700Z,13.00
2023-04-23T06:20:45.092Z,13.10
2023-04-23T06:23:13.435Z,13.20
2023-04-23T06:25:40.925Z,13.30
2023-04-23T06:28:08.188Z,13.30
2023-04-23T06:30:44.075Z,13.20
2023-04-23T06:33:12.921Z,13.30
2023-04-23T06:35:40.247Z,13.30
2023-04-23T06:38:09.057Z,13.40
2023-04-23T06:40:36.668Z,13.30
2023-04-23T06:43:05.602Z,13.20
2023-04-23T06:46:02.003Z,13.20
2023-04-23T06:48:29.307Z,13.20
2023-04-23T06:50:56.471Z,13.20
2023-04-23T06:53:23.795Z,13.20
2023-04-23T06:55:51.957Z,13.20
2023-04-23T06:58:19.710Z,13.30
2023-04-23T07:00:47.663Z,13.40
2023-04-23T07:03:15.449Z,13.60
2023-04-23T07:05:42.909Z,13.70
2023-04-23T07:08:10.129Z,13.80
2023-04-23T07:10:37.879Z,13.70
2023-04-23T07:13:05.101Z,13.70
2023-04-23T07:15:32.499Z,13.70
2023-04-23T07:17:59.950Z,13.70
2023-04-23T07:20:27.217Z,13.70
2023-04-23T07:22:54.671Z,13.80
2023-04-23T07:25:22.819Z,13.90
2023-04-23T07:27:50.248Z,13.70
2023-04-23T07:30:17.758Z,13.80
2023-04-23T07:32:46.491Z,13.70
2023-04-23T07:35:16.524Z,13.60
2023-04-23T07:37:43.864Z,13.70
2023-04-23T07:40:11.938Z,13.90
2023-04-23T07:42:39.779Z,13.90
2023-04-23T07:45:07.790Z,14.10
2023-04-23T07:47:34.959Z,14.40
2023-04-23T07:50:02.453Z,14.70
2023-04-23T07:52:29.725Z,15.00
2023-04-23T07:54:57.137Z,15.20
2023-04-23T07:57:24.945Z,15.30
2023-04-23T07:59:52.841Z,15.40
2023-04-23T08:02:23.948Z,15.50
2023-04-23T08:04:53.568Z,15.50
2023-04-23T08:07:21.213Z,15.30
2023-04-23T08:09:49.013Z,15.20
2023-04-23T08:12:17.485Z,15.20
2023-04-23T08:14:45.040Z,15.20
2023-04-23T08:17:15.465Z,15.00
2023-04-23T08:19:43.635Z,15.00
2023-04-23T08:22:11.101Z,14.90
2023-04-23T08:24:38.433Z,14.90
2023-04-23T08:27:05.918Z,15.10
2023-04-23T08:29:34.136Z,15.30
2023-04-23T08:32:01.866Z,15.30
2023-04-23T08:34:30.726Z,15.20
2023-04-23T08:36:58.028Z,15.30
2023-04-23T08:39:25.407Z,15.20
2023-04-23T08:41:56.729Z,15.10
2023-04-23T08:44:26.002Z,15.00
2023-04-23T08:46:54.783Z,14.90
2023-04-23T08:49:22.226Z,14.70
2023-04-23T08:51:54.720Z,14.60
2023-04-23T08:54:29.067Z,14.90
2023-04-23T08:57:01.132Z,15.30
2023-04-23T08:59:32.687Z,15.50
2023-04-23T09:02:08.002Z,15.60
2023-04-23T09:04:37.244Z,15.90
2023-04-23T09:07:04.977Z,16.10
2023-04-23T09:09:35.151Z,16.40
2023-04-23T09:12:03.042Z,16.50
2023-04-23T09:14:30.320Z,16.80
2023-04-23T09:16:57.617Z,17.00
2023-04-23T09:19:30.836Z,17.00
2023-04-23T09:22:01.152Z,16.80
2023-04-23T09:24:28.652Z,16.80
2023-04-23T09:26:58.231Z,16.70
2023-04-23T09:29:26.565Z,16.60
2023-04-23T09:32:09.546Z,16.70
2023-04-23T09:34:37.879Z,17.30
2023-04-23T09:37:08.198Z,17.60
2023-04-23T09:39:36.205Z,17.70
2023-04-23T09:42:05.909Z,17.50
2023-04-23T09:44:34.198Z,17.40
2023-04-23T09:47:14.992Z,17.80
2023-04-23T09:49:48.687Z,17.70
2023-04-23T09:52:16.257Z,17.80
2023-04-23T09:54:44.463Z,18.00
2023-04-23T09:57:13.423Z,17.70
2023-04-23T10:02:14.357Z,18.00
2023-04-23T10:04:42.334Z,18.20
2023-04-23T10:09:44.278Z,18.50
2023-04-23T10:14:44.644Z,18.70
2023-04-23T10:17:12.872Z,18.30
2023-04-23T10:19:43.830Z,18.70
2023-04-23T10:24:47.172Z,18.90
2023-04-23T10:29:52.542Z,19.50
2023-04-23T10:32:21.692Z,20.00
2023-04-23T10:34:51.554Z,20.10
2023-04-23T10:37:20.099Z,20.40
2023-04-23T10:39:51.562Z,20.80
2023-04-23T10:42:19.082Z,20.90
2023-04-23T10:44:59.055Z,21.50
2023-04-23T10:47:31.367Z,21.70
2023-04-23T10:50:17.908Z,22.10
2023-04-23T10:52:46.926Z,21.80
2023-04-23T10:55:18.703Z,22.00
2023-04-23T10:58:16.905Z,21.70
2023-04-23T11:00:48.172Z,21.80
2023-04-23T11:03:44.552Z,21.90
2023-04-23T11:06:21.402Z,22.20
2023-04-23T11:08:54.880Z,22.50
2023-04-23T11:11:40.842Z,23.10
2023-04-23T11:14:16.697Z,23.90
2023-04-23T11:16:44.004Z,24.50
2023-04-23T11:19:12.782Z,24.00
2023-04-23T11:22:03.730Z,23.50
2023-04-23T11:24:42.947Z,24.00
2023-04-23T11:27:17.465Z,23.50
2023-04-23T11:29:47.501Z,23.20
2023-04-23T11:32:17.491Z,23.00
2023-04-23T11:34:46.724Z,23.10
2023-04-23T11:37:20.766Z,23.50
2023-04-23T11:39:49.423Z,23.70
2023-04-23T11:42:20.379Z,24.50
2023-04-23T11:44:50.460Z,25.30
2023-04-23T11:47:18.810Z,25.10
2023-04-23T11:49:46.288Z,24.70
2023-04-23T11:52:15.287Z,24.80
2023-04-23T11:54:43.058Z,25.00
2023-04-23T11:57:10.679Z,25.50
2023-04-23T11:59:38.579Z,25.50
2023-04-23T12:02:06.028Z,25.00
2023-04-23T12:04:34.145Z,24.50
2023-04-23T12:07:04.330Z,24.40
2023-04-23T12:09:39.331Z,24.70
2023-04-23T12:12:06.630Z,26.00
2023-04-23T12:14:33.800Z,25.60
2023-04-23T12:17:10.620Z,26.10
2023-04-23T12:19:38.701Z,25.50
2023-04-23T12:22:08.382Z,25.50
2023-04-23T12:24:54.683Z,25.70
2023-04-23T12:27:23.416Z,25.10
2023-04-23T12:30:00.830Z,24.60
2023-04-23T12:32:28.221Z,24.50
2023-04-23T12:34:57.002Z,24.00
2023-04-23T12:37:31.704Z,23.50
2023-04-23T12:39:59.819Z,23.90
2023-04-23T12:42:27.649Z,24.70
2023-04-23T12:44:57.624Z,24.60
2023-04-23T12:47:25.041Z,24.60
2023-04-23T12:49:54.888Z,24.20
2023-04-23T12:52:22.205Z,23.50
2023-04-23T12:54:52.818Z,22.60
2023-04-23T12:57:23.558Z,22.60
2023-04-23T12:59:51.153Z,22.80
2023-04-23T13:02:20.277Z,23.30
2023-04-23T13:04:47.599Z,22.90
2023-04-23T13:07:14.909Z,23.80
2023-04-23T13:09:46.639Z,24.00
2023-04-23T13:12:13.973Z,24.20
2023-04-23T13:14:41.868Z,24.40
2023-04-23T13:17:09.105Z,25.20
2023-04-23T13:19:40.440Z,26.30
2023-04-23T13:22:09.374Z,26.90
2023-04-23T13:24:37.281Z,28.70
2023-04-23T13:27:04.631Z,29.80
2023-04-23T13:29:32.040Z,28.80
2023-04-23T13:32:00.952Z,27.70
2023-04-23T13:34:28.198Z,27.80
2023-04-23T13:36:55.532Z,28.20
2023-04-23T13:39:29.872Z,29.00
2023-04-23T13:42:09.136Z,30.90
2023-04-23T13:44:37.142Z,32.90
2023-04-23T13:47:04.657Z,31.60
2023-04-23T13:49:32.441Z,30.80
2023-04-23T13:52:07.488Z,32.60
2023-04-23T13:54:36.040Z,33.20
2023-04-23T13:57:03.524Z,34.30
2023-04-23T13:59:31.281Z,33.80
2023-04-23T14:01:59.424Z,33.70
2023-04-23T14:04:27.183Z,35.00
2023-04-23T14:06:54.797Z,35.40
2023-04-23T14:09:22.690Z,34.60
2023-04-23T14:11:50.264Z,35.20
2023-04-23T14:14:20.142Z,36.40
2023-04-23T14:16:47.517Z,34.80
2023-04-23T14:19:14.836Z,32.80
2023-04-23T14:21:43.796Z,30.50
2023-04-23T14:24:34.642Z,29.70
2023-04-23T14:27:03.816Z,28.70
2023-04-23T14:29:42.433Z,27.60
2023-04-23T14:32:10.015Z,26.70
2023-04-23T14:34:37.380Z,26.40
2023-04-23T14:37:05.564Z,27.20
2023-04-23T14:39:34.732Z,28.20
2023-04-23T14:42:03.205Z,28.60
2023-04-23T14:44:30.570Z,28.00
2023-04-23T14:46:59.500Z,27.60
2023-04-23T14:49:26.953Z,27.10
2023-04-23T14:51:54.617Z,26.60
2023-04-23T14:54:23.718Z,26.20
2023-04-23T14:56:52.314Z,27.10
2023-04-23T14:59:19.966Z,27.40
2023-04-23T15:01:49.072Z,25.90
2023-04-23T15:04:17.567Z,25.40
2023-04-23T15:06:45.258Z,25.90
2023-04-23T15:09:13.274Z,26.80
2023-04-23T15:11:43.648Z,27.70
2023-04-23T15:14:30.958Z,28.50
2023-04-23T15:17:00.557Z,28.30
2023-04-23T15:19:31.506Z,28.70
2023-04-23T15:21:59.632Z,30.60
2023-04-23T15:24:30.927Z,32.60
2023-04-23T15:26:59.622Z,31.70
2023-04-23T15:29:27.826Z,29.70
2023-04-23T15:31:58.495Z,28.80
2023-04-23T15:34:26.065Z,28.30
2023-04-23T15:36:53.334Z,29.20
2023-04-23T15:39:21.533Z,30.20
2023-04-23T15:41:48.794Z,31.00
2023-04-23T15:44:19.000Z,32.20
2023-04-23T15:46:47.490Z,32.80
2023-04-23T15:49:14.816Z,31.70
2023-04-23T15:51:42.082Z,31.00
2023-04-23T15:54:09.768Z,30.00
2023-04-23T15:56:38.500Z,31.50
2023-04-23T15:59:06.381Z,32.30
2023-04-23T16:01:37.503Z,32.90
2023-04-23T16:04:10.837Z,32.30
2023-04-23T16:06:41.450Z,32.30
2023-04-23T16:09:09.586Z,30.60
2023-04-23T16:11:37.944Z,29.50
2023-04-23T16:14:07.049Z,27.60
2023-04-23T16:16:34.940Z,26.20
2023-04-23T16:19:03.082Z,26.00
2023-04-23T16:21:32.449Z,26.00
2023-04-23T16:24:00.192Z,25.60
2023-04-23T16:26:29.341Z,25.00
2023-04-23T16:29:11.350Z,24.50
2023-04-23T16:31:39.423Z,23.60
2023-04-23T16:34:07.142Z,23.20
2023-04-23T16:36:34.583Z,23.10
2023-04-23T16:39:02.469Z,23.20
2023-04-23T16:41:32.548Z,23.10
2023-04-23T16:44:00.059Z,22.90
2023-04-23T16:46:30.175Z,22.80
2023-04-23T16:49:00.488Z,22.80
2023-04-23T16:51:29.932Z,22.30
2023-04-23T16:53:57.964Z,21.60
2023-04-23T16:56:26.657Z,21.20
2023-04-23T16:58:54.005Z,20.80
2023-04-23T17:01:21.688Z,20.60
2023-04-23T17:03:50.468Z,20.30
2023-04-23T17:06:25.797Z,19.90
2023-04-23T17:08:53.661Z,19.80
2023-04-23T17:11:23.373Z,19.40
2023-04-23T17:13:54.876Z,19.10
2023-04-23T17:16:22.549Z,18.90
2023-04-23T17:18:50.002Z,18.90
2023-04-23T17:21:17.604Z,18.80
2023-04-23T17:23:49.167Z,18.70
2023-04-23T17:26:19.517Z,18.70
2023-04-23T17:28:47.037Z,18.70
2023-04-23T17:31:14.822Z,18.60
2023-04-23T17:33:46.044Z,18.60
2023-04-23T17:36:13.475Z,18.60
2023-04-23T17:38:41.828Z,18.50
2023-04-23T17:41:09.741Z,18.30
2023-04-23T17:43:39.613Z,18.10
2023-04-23T17:46:07.283Z,18.00
2023-04-23T17:48:34.716Z,18.00
2023-04-23T17:51:03.339Z,17.80
2023-04-23T17:53:31.945Z,17.70
2023-04-23T17:56:02.893Z,17.60
2023-04-23T17:58:31.131Z,17.40
2023-04-23T18:01:00.428Z,17.30
2023-04-23T18:03:30.193Z,17.20
2023-04-23T18:05:58.384Z,17.10
2023-04-23T18:08:25.924Z,17.00
2023-04-23T18:10:54.148Z,16.80
2023-04-23T18:13:21.648Z,16.80
2023-04-23T18:15:49.954Z,16.70
2023-04-23T18:18:21.897Z,16.70
2023-04-23T18:20:54.354Z,16.60
2023-04-23T18:23:22.405Z,16.60
2023-04-23T18:25:49.955Z,16.50
2023-04-23T18:28:17.513Z,16.50
2023-04-23T18:30:45.028Z,16.50
2023-04-23T18:33:16.755Z,16.50
2023-04-23T18:35:48.243Z,16.40
2023-04-23T18:38:31.928Z,16.50
2023-04-23T18:41:03.208Z,16.40
2023-04-23T18:43:34.590Z,16.40
2023-04-23T18:46:03.199Z,16.40
2023-04-23T18:48:33.825Z,16.40
2023-04-23T18:51:31.208Z,16.40
2023-04-23T18:53:59.040Z,16.30
2023-04-23T18:56:26.335Z,16.20
2023-04-23T18:58:54.192Z,15.90
2023-04-23T19:01:21.655Z,15.70
2023-04-23T19:03:49.409Z,15.30
2023-04-23T19:06:18.381Z,15.10
2023-04-23T19:08:50.114Z,14.90
2023-04-23T19:11:17.618Z,14.00
2023-04-23T19:13:45.047Z,13.20
2023-04-23T19:16:16.421Z,12.30
2023-04-23T19:18:44.624Z,11.60
2023-04-23T19:21:13.564Z,11.30
2023-04-23T19:23:41.663Z,11.20
2023-04-23T19:26:09.636Z,11.10
2023-04-23T19:28:41.215Z,11.10
2023-04-23T19:31:09.265Z,11.20
2023-04-23T19:33:37.359Z,11.30
2023-04-23T19:36:05.518Z,11.30
2023-04-23T19:38:32.827Z,11.40
2023-04-23T19:41:00.604Z,11.50
2023-04-23T19:43:28.185Z,11.50
2023-04-23T19:45:56.988Z,11.60
2023-04-23T19:48:24.428Z,11.70
2023-04-23T19:50:51.946Z,11.80
2023-04-23T19:53:22.807Z,11.90
2023-04-23T19:55:50.184Z,12.00
2023-04-23T19:58:18.911Z,12.10
2023-04-23T20:00:48.770Z,12.10
2023-04-23T20:03:16.381Z,12.10
2023-04-23T20:05:46.167Z,12.00
2023-04-23T20:08:26.193Z,11.90
2023-04-23T20:10:54.644Z,11.80
2023-04-23T20:13:23.626Z,11.70
2023-04-23T20:15:53.845Z,11.70
2023-04-23T20:18:21.814Z,11.70
2023-04-23T20:20:50.696Z,11.60
2023-04-23T20:23:18.725Z,11.50
2023-04-23T20:25:46.128Z,11.40
2023-04-23T20:28:13.477Z,11.40
2023-04-23T20:30:41.128Z,11.30
2023-04-23T20:33:10.536Z,11.30
2023-04-23T20:35:39.814Z,11.20
2023-04-23T20:38:08.015Z,11.30
2023-04-23T20:40:35.602Z,11.40
2023-04-23T20:43:04.631Z,11.40
2023-04-23T20:45:33.045Z,11.40
2023-04-23T20:48:02.467Z,11.40
2023-04-23T20:50:30.664Z,11.50
2023-04-23T20:52:58.034Z,11.50
2023-04-23T20:55:28.400Z,11.50
2023-04-23T20:57:55.742Z,11.50
2023-04-23T21:00:24.451Z,11.50
2023-04-23T21:02:53.927Z,11.50
2023-04-23T21:05:22.878Z,11.50
2023-04-23T21:07:51.913Z,11.40
2023-04-23T21:10:19.953Z,11.40
2023-04-23T21:12:47.770Z,11.40
2023-04-23T21:15:17.333Z,11.40
2023-04-23T21:17:44.814Z,11.40
2023-04-23T21:20:14.682Z,11.40
2023-04-23T21:22:42.060Z,11.40
2023-04-23T21:25:10.170Z,11.40
2023-04-23T21:27:38.702Z,11.50
2023-04-23T21:30:11.292Z,11.50
2023-04-23T21:32:38.946Z,11.40
2023-04-23T21:35:07.219Z,11.50
2023-04-23T21:37:37.437Z,11.50
2023-04-23T21:40:05.714Z,11.60
2023-04-23T21:42:33.016Z,11.60
2023-04-23T21:45:02.788Z,11.60
2023-04-23T21:47:30.068Z,11.70
2023-04-23T21:49:58.157Z,11.60
2023-04-23T21:52:26.527Z,11.70
2023-04-23T21:54:53.928Z,11.60
2023-04-23T21:57:21.484Z,11.60
2023-04-23T21:59:49.222Z,11.60
2023-04-23T22:02:17.234Z,11.50
2023-04-23T22:04:45.192Z,11.50
2023-04-23T22:07:13.819Z,11.50
2023-04-23T22:09:41.484Z,11.50
2023-04-23T22:12:10.882Z,11.50
2023-04-23T22:14:38.210Z,11.50
2023-04-23T22:17:07.583Z,11.50
2023-04-23T22:19:36.192Z,11.50
2023-04-23T22:22:04.520Z,11.50
2023-04-23T22:24:32.795Z,11.60
2023-04-23T22:27:02.166Z,11.60
2023-04-23T22:29:29.881Z,11.60
2023-04-23T22:31:58.434Z,11.60
2023-04-23T22:34:26.894Z,11.60
2023-04-23T22:36:54.529Z,11.60
2023-04-23T22:39:24.608Z,11.60
2023-04-23T22:41:51.976Z,11.60
2023-04-23T22:44:19.448Z,11.60
2023-04-23T22:46:47.070Z,11.50
2023-04-23T22:49:14.888Z,11.40
2023-04-23T22:51:42.211Z,11.40
2023-04-23T22:54:09.638Z,11.40
2023-04-23T22:56:37.878Z,11.50
2023-04-23T22:59:06.798Z,11.50
2023-04-23T23:01:35.188Z,11.50
2023-04-23T23:04:02.739Z,11.50
2023-04-23T23:06:30.509Z,11.50
2023-04-23T23:08:58.137Z,11.50
2023-04-23T23:11:28.911Z,11.50
2023-04-23T23:13:56.578Z,11.50
2023-04-23T23:16:25.061Z,11.50
2023-04-23T23:18:53.554Z,11.50
2023-04-23T23:21:22.917Z,11.50
2023-04-23T23:23:50.617Z,11.60
2023-04-23T23:26:18.282Z,11.60
2023-04-23T23:28:45.602Z,11.60
2023-04-23T23:31:14.571Z,11.60
2023-04-23T23:33:42.155Z,11.60
2023-04-23T23:36:09.536Z,11.60
2023-04-23T23:38:36.961Z,11.60
2023-04-23T23:41:04.331Z,11.60
2023-04-23T23:43:34.570Z,11.60
2023-04-23T23:46:02.467Z,11.60
2023-04-23T23:48:29.826Z,11.60
2023-04-23T23:50:57.154Z,11.50
2023-04-23T23:53:25.109Z,11.50
2023-04-23T23:55:52.550Z,11.50
2023-04-23T23:58:21.036Z,11.50
